Time;durP1;ratioP1;P1;durP2;ratioP2;P2;SDS_P1;SDS_P2;PMS_P1;PMS_P2;Temp;Humidity;BMP_temperature;BMP_pressure;BME280_temperature;BME280_humidity;BME280_pressure;Samples;Min_cycle;Max_cycle;Signal;HPM_P1;HPM_P2
2023/12/23 00:02:00;;;;;;;8.70;2.47;;;;;;;;;;10300094;28;20490;-82
2023/12/23 00:07:01;;;;;;;10.80;3.73;;;;;;;;;;10272552;28;20698;-80
2023/12/23 00:12:02;;;;;;;13.13;2.90;;;;;;;;;;10288404;28;20039;-80
2023/12/23 00:17:03;;;;;;;9.93;2.87;;;;;;;;;;10280113;28;20833;-80
2023/12/23 00:22:04;;;;;;;9.23;2.63;;;;;;;;;;10288764;28;20471;-80
2023/12/23 00:27:12;;;;;;;10.83;3.20;;;;;;;;;;10299212;28;20023;-80
2023/12/23 00:32:13;;;;;;;13.10;3.87;;;;;;;;;;10287675;28;20066;-79
2023/12/23 00:37:14;;;;;;;8.40;2.67;;;;;;;;;;10288067;28;20041;-79
2023/12/23 00:42:15;;;;;;;9.60;3.33;;;;;;;;;;10280344;28;20372;-84
2023/12/23 00:47:16;;;;;;;14.83;4.00;;;;;;;;;;10288340;28;20119;-80
2023/12/23 00:52:17;;;;;;;7.90;2.87;;;;;;;;;;10286700;28;20392;-79
2023/12/23 00:57:18;;;;;;;10.40;3.27;;;;;;;;;;10285312;28;20054;-79
2023/12/23 01:02:19;;;;;;;11.63;2.27;;;;;;;;;;10287304;28;20035;-80
2023/12/23 01:07:20;;;;;;;9.07;2.37;;;;;;;;;;10267810;28;20069;-80
2023/12/23 01:12:21;;;;;;;4.70;1.40;;;;;;;;;;10286437;28;20178;-82
2023/12/23 01:17:22;;;;;;;6.73;2.20;;;;;;;;;;10291216;28;20047;-83
2023/12/23 01:22:23;;;;;;;11.33;2.80;;;;;;;;;;10284895;28;20038;-83
2023/12/23 01:27:24;;;;;;;6.63;1.97;;;;;;;;;;10285790;28;20043;-79
2023/12/23 01:32:25;;;;;;;6.97;2.40;;;;;;;;;;10295423;28;20451;-82
2023/12/23 01:37:26;;;;;;;7.23;2.33;;;;;;;;;;10288521;28;20064;-79
2023/12/23 01:42:27;;;;;;;9.70;2.97;;;;;;;;;;10288786;28;20026;-80
2023/12/23 01:47:28;;;;;;;10.20;3.67;;;;;;;;;;10293721;28;20038;-81
2023/12/23 01:52:30;;;;;;;8.53;2.80;;;;;;;;;;10287453;28;20038;-81
2023/12/23 01:57:31;;;;;;;8.07;2.83;;;;;;;;;;10271464;28;20062;-79
2023/12/23 02:02:32;;;;;;;7.57;2.97;;;;;;;;;;10283690;28;20545;-80
2023/12/23 02:07:36;;;;;;;7.60;2.97;;;;;;;;;;10285632;28;20030;-79
2023/12/23 02:12:41;;;;;;;5.90;2.00;;;;;;;;;;10284544;28;20041;-79
2023/12/23 02:17:42;;;;;;;9.20;3.13;;;;;;;;;;10283601;28;20053;-79
2023/12/23 02:22:43;;;;;;;3.80;1.80;;;;;;;;;;10288503;28;20037;-79
2023/12/23 02:27:50;;;;;;;9.60;2.67;;;;;;;;;;10306684;28;20030;-83
2023/12/23 02:32:51;;;;;;;3.77;1.40;;;;;;;;;;10293817;28;20031;-80
2023/12/23 02:37:54;;;;;;;5.63;2.13;;;;;;;;;;10295253;28;20585;-80
2023/12/23 02:42:55;;;;;;;3.43;1.20;;;;;;;;;;10293274;28;20102;-79
2023/12/23 02:47:56;;;;;;;1.73;0.87;;;;;;;;;;10293548;28;20486;-80
2023/12/23 02:52:59;;;;;;;3.97;1.77;;;;;;;;;;10300174;28;20034;-82
2023/12/23 02:58:01;;;;;;;7.30;2.10;;;;;;;;;;10298173;28;20054;-80
2023/12/23 03:03:02;;;;;;;5.73;2.17;;;;;;;;;;10300089;28;20364;-82
2023/12/23 03:08:03;;;;;;;7.27;2.97;;;;;;;;;;10291187;28;20042;-83
2023/12/23 03:13:04;;;;;;;4.60;2.30;;;;;;;;;;10290271;28;20035;-81
2023/12/23 03:18:05;;;;;;;8.30;2.97;;;;;;;;;;10291804;28;20039;-83
2023/12/23 03:23:06;;;;;;;5.30;2.70;;;;;;;;;;10282232;28;20122;-82
2023/12/23 03:28:07;;;;;;;4.03;1.90;;;;;;;;;;10289213;28;20587;-79
2023/12/23 03:33:08;;;;;;;5.17;2.07;;;;;;;;;;10291836;28;20078;-79
2023/12/23 03:38:09;;;;;;;3.63;2.20;;;;;;;;;;10292779;28;20038;-81
2023/12/23 03:43:10;;;;;;;10.97;2.03;;;;;;;;;;10300993;28;20831;-79
2023/12/23 03:48:11;;;;;;;3.40;1.70;;;;;;;;;;10287589;28;20051;-80
2023/12/23 03:53:14;;;;;;;4.77;1.80;;;;;;;;;;10280620;28;20137;-81
2023/12/23 03:58:15;;;;;;;4.60;2.10;;;;;;;;;;10289806;28;20047;-79
2023/12/23 04:03:16;;;;;;;6.57;1.63;;;;;;;;;;10289666;28;20042;-81
2023/12/23 04:08:17;;;;;;;5.80;1.60;;;;;;;;;;10289580;28;20542;-79
2023/12/23 04:13:18;;;;;;;2.60;1.53;;;;;;;;;;10294445;28;20080;-80
2023/12/23 04:18:19;;;;;;;5.23;1.80;;;;;;;;;;10276842;28;20047;-79
2023/12/23 04:23:20;;;;;;;4.03;2.00;;;;;;;;;;10292745;28;20914;-79
2023/12/23 04:28:24;;;;;;;7.07;1.80;;;;;;;;;;10300055;28;20080;-79
2023/12/23 04:33:25;;;;;;;2.73;1.07;;;;;;;;;;10301212;28;20169;-80
2023/12/23 04:38:26;;;;;;;2.50;1.40;;;;;;;;;;10294527;28;20050;-80
2023/12/23 04:43:30;;;;;;;2.40;1.50;;;;;;;;;;10295188;28;20581;-79
2023/12/23 04:48:31;;;;;;;3.73;1.10;;;;;;;;;;10286624;28;20035;-80
2023/12/23 04:53:32;;;;;;;2.80;1.10;;;;;;;;;;10287363;28;20516;-80
2023/12/23 04:58:33;;;;;;;3.37;1.43;;;;;;;;;;10297321;28;20124;-82
2023/12/23 05:03:34;;;;;;;5.57;2.00;;;;;;;;;;10288797;28;20239;-81
2023/12/23 05:08:35;;;;;;;3.57;1.13;;;;;;;;;;10286202;28;20498;-81
2023/12/23 05:13:36;;;;;;;7.80;1.80;;;;;;;;;;10289368;28;20034;-82
2023/12/23 05:18:37;;;;;;;2.60;1.30;;;;;;;;;;10288013;28;20042;-80
2023/12/23 05:23:38;;;;;;;3.13;0.67;;;;;;;;;;10272375;28;20093;-81
2023/12/23 05:28:40;;;;;;;4.63;1.57;;;;;;;;;;10294237;28;20140;-80
2023/12/23 05:33:42;;;;;;;2.80;0.83;;;;;;;;;;10276349;28;20046;-82
2023/12/23 05:38:43;;;;;;;3.73;1.17;;;;;;;;;;10281856;28;20084;-81
2023/12/23 05:43:44;;;;;;;1.97;1.20;;;;;;;;;;10292874;28;20121;-81
2023/12/23 05:48:51;;;;;;;6.57;1.30;;;;;;;;;;10302323;28;20035;-82
2023/12/23 05:53:59;;;;;;;5.47;1.00;;;;;;;;;;10293071;28;20490;-80
2023/12/23 05:59:00;;;;;;;1.33;0.80;;;;;;;;;;10265286;28;20454;-83
2023/12/23 06:04:01;;;;;;;3.93;0.57;;;;;;;;;;10297446;28;20038;-80
2023/12/23 06:09:03;;;;;;;3.10;0.80;;;;;;;;;;10293917;28;20031;-81
2023/12/23 06:14:04;;;;;;;2.57;1.03;;;;;;;;;;10290453;28;20584;-83
2023/12/23 06:19:05;;;;;;;6.53;1.57;;;;;;;;;;10293281;28;20070;-81
2023/12/23 06:24:06;;;;;;;5.30;2.03;;;;;;;;;;10291216;28;20389;-80
2023/12/23 06:29:07;;;;;;;4.90;2.50;;;;;;;;;;10278063;28;20525;-80
2023/12/23 06:34:08;;;;;;;3.70;1.23;;;;;;;;;;10279949;28;20070;-81
2023/12/23 06:39:09;;;;;;;2.37;1.30;;;;;;;;;;10285704;28;20041;-80
2023/12/23 06:44:10;;;;;;;5.43;1.70;;;;;;;;;;10270863;28;20039;-79
2023/12/23 06:49:12;;;;;;;8.07;2.70;;;;;;;;;;10283992;28;20038;-80
2023/12/23 06:54:13;;;;;;;10.60;5.07;;;;;;;;;;10285168;28;20065;-80
2023/12/23 06:59:14;;;;;;;31.50;11.63;;;;;;;;;;10257087;28;20050;-80
2023/12/23 07:04:15;;;;;;;17.80;8.00;;;;;;;;;;10290616;28;20050;-79
2023/12/23 07:09:16;;;;;;;6.33;2.90;;;;;;;;;;10290971;28;20212;-80
2023/12/23 07:14:17;;;;;;;12.47;4.03;;;;;;;;;;10291097;28;20438;-79
2023/12/23 07:19:18;;;;;;;10.20;3.83;;;;;;;;;;10287541;28;20117;-78
2023/12/23 07:24:19;;;;;;;10.67;4.67;;;;;;;;;;10292328;28;20027;-81
2023/12/23 07:29:20;;;;;;;10.27;4.53;;;;;;;;;;10251202;28;20054;-79
2023/12/23 07:34:22;;;;;;;12.27;4.80;;;;;;;;;;10287654;28;20062;-84
2023/12/23 07:39:23;;;;;;;9.47;4.33;;;;;;;;;;10289037;28;20467;-82
2023/12/23 07:44:24;;;;;;;14.97;6.07;;;;;;;;;;10298520;28;20125;-80
2023/12/23 07:49:25;;;;;;;11.57;4.90;;;;;;;;;;10295847;28;20034;-84
2023/12/23 07:54:26;;;;;;;7.50;2.50;;;;;;;;;;10289021;28;20404;-80
2023/12/23 07:59:27;;;;;;;4.10;2.40;;;;;;;;;;10287887;28;20474;-80
2023/12/23 08:04:28;;;;;;;2.80;1.37;;;;;;;;;;10287879;28;20105;-83
2023/12/23 08:09:29;;;;;;;3.83;1.27;;;;;;;;;;10295128;28;20037;-80
2023/12/23 08:14:30;;;;;;;6.70;2.10;;;;;;;;;;10296637;28;20473;-79
2023/12/23 08:19:31;;;;;;;8.90;2.73;;;;;;;;;;10277465;28;20043;-79
2023/12/23 08:24:33;;;;;;;6.70;3.00;;;;;;;;;;10290438;28;20680;-78
2023/12/23 08:29:34;;;;;;;10.10;3.57;;;;;;;;;;10286864;28;20426;-78
2023/12/23 08:34:41;;;;;;;9.53;4.33;;;;;;;;;;10293484;28;20065;-80
2023/12/23 08:39:42;;;;;;;10.53;3.83;;;;;;;;;;10285429;28;20853;-79
2023/12/23 08:44:43;;;;;;;6.77;2.57;;;;;;;;;;10285947;28;20039;-80
2023/12/23 08:49:44;;;;;;;5.23;1.93;;;;;;;;;;10285772;28;20033;-80
2023/12/23 08:54:45;;;;;;;8.70;3.17;;;;;;;;;;10282425;28;20943;-80
2023/12/23 08:59:47;;;;;;;8.43;3.63;;;;;;;;;;10280880;28;20096;-81
2023/12/23 09:04:48;;;;;;;4.37;1.87;;;;;;;;;;10289727;28;20026;-79
2023/12/23 09:09:49;;;;;;;8.17;2.97;;;;;;;;;;10284004;28;20118;-80
2023/12/23 09:14:50;;;;;;;13.37;3.90;;;;;;;;;;10282004;28;20087;-79
2023/12/23 09:19:51;;;;;;;8.47;4.13;;;;;;;;;;10285049;28;20084;-80
2023/12/23 09:24:52;;;;;;;11.23;4.33;;;;;;;;;;10289707;28;20031;-80
2023/12/23 09:29:55;;;;;;;10.13;3.97;;;;;;;;;;10296506;28;20042;-80
2023/12/23 09:34:56;;;;;;;11.07;3.70;;;;;;;;;;10283619;28;20081;-80
2023/12/23 09:40:01;;;;;;;46.67;16.67;;;;;;;;;;10285049;28;20042;-79
2023/12/23 09:45:02;;;;;;;16.60;6.37;;;;;;;;;;10285863;28;20059;-80
2023/12/23 09:50:03;;;;;;;16.37;6.63;;;;;;;;;;10284969;28;20038;-79
2023/12/23 09:55:04;;;;;;;14.73;5.07;;;;;;;;;;10285150;28;20094;-79
2023/12/23 10:00:06;;;;;;;11.57;4.93;;;;;;;;;;10281658;28;20051;-81
2023/12/23 10:05:07;;;;;;;17.53;6.23;;;;;;;;;;10283379;28;20033;-80
2023/12/23 10:10:08;;;;;;;11.43;4.97;;;;;;;;;;10285229;28;20039;-79
2023/12/23 10:15:09;;;;;;;10.57;4.30;;;;;;;;;;10284587;28;20057;-79
2023/12/23 10:20:13;;;;;;;15.33;5.23;;;;;;;;;;10280128;28;20043;-78
2023/12/23 10:25:15;;;;;;;11.70;4.20;;;;;;;;;;10285743;28;20037;-79
2023/12/23 10:30:16;;;;;;;13.00;4.43;;;;;;;;;;10290413;28;20472;-79
2023/12/23 10:35:20;;;;;;;14.17;6.13;;;;;;;;;;10285689;28;20034;-79
2023/12/23 10:40:24;;;;;;;18.03;6.43;;;;;;;;;;10289592;28;20505;-79
2023/12/23 10:45:26;;;;;;;12.63;5.87;;;;;;;;;;10297746;28;20114;-80
2023/12/23 10:50:27;;;;;;;15.50;5.83;;;;;;;;;;10287824;28;20065;-79
2023/12/23 10:55:28;;;;;;;17.63;6.63;;;;;;;;;;10298266;28;20533;-81
2023/12/23 11:00:29;;;;;;;17.77;5.90;;;;;;;;;;10276780;28;20043;-80
2023/12/23 11:05:31;;;;;;;17.10;6.87;;;;;;;;;;10298685;28;20041;-80
2023/12/23 11:10:33;;;;;;;19.47;6.37;;;;;;;;;;10293696;28;20778;-78
2023/12/23 11:15:38;;;;;;;21.17;7.80;;;;;;;;;;10274432;28;20084;-78
2023/12/23 11:20:42;;;;;;;25.43;8.07;;;;;;;;;;10302781;28;20050;-79
2023/12/23 11:25:43;;;;;;;22.37;7.83;;;;;;;;;;10287216;28;20506;-80
2023/12/23 11:30:48;;;;;;;22.13;8.67;;;;;;;;;;10304719;28;20026;-80
2023/12/23 11:35:51;;;;;;;23.30;7.90;;;;;;;;;;10289711;28;20487;-78
2023/12/23 11:40:52;;;;;;;25.20;10.00;;;;;;;;;;10299636;28;20051;-77
2023/12/23 11:45:59;;;;;;;23.40;9.03;;;;;;;;;;10299044;28;20062;-77
2023/12/23 11:51:00;;;;;;;22.47;7.30;;;;;;;;;;10279841;28;20503;-78
2023/12/23 11:56:01;;;;;;;17.03;6.23;;;;;;;;;;10294010;28;20042;-78
2023/12/23 12:01:03;;;;;;;22.67;7.53;;;;;;;;;;10290856;28;20074;-79
2023/12/23 12:06:04;;;;;;;22.17;7.53;;;;;;;;;;10293230;28;20070;-79
2023/12/23 12:11:05;;;;;;;27.20;9.53;;;;;;;;;;10299850;28;20035;-77
2023/12/23 12:16:06;;;;;;;20.17;7.63;;;;;;;;;;10280911;28;20038;-79
2023/12/23 12:21:07;;;;;;;21.47;8.80;;;;;;;;;;10297302;28;20081;-79
2023/12/23 12:26:08;;;;;;;18.73;6.83;;;;;;;;;;10298586;28;20034;-78
2023/12/23 12:31:10;;;;;;;25.00;9.90;;;;;;;;;;10287187;28;20034;-78
2023/12/23 12:36:13;;;;;;;26.10;11.40;;;;;;;;;;10288700;28;20035;-78
2023/12/23 12:41:14;;;;;;;19.80;9.90;;;;;;;;;;10283968;28;20486;-78
2023/12/23 12:46:15;;;;;;;17.57;6.97;;;;;;;;;;10293110;28;20030;-78
2023/12/23 12:51:16;;;;;;;18.70;7.87;;;;;;;;;;10295416;28;20395;-78
2023/12/23 12:56:20;;;;;;;48.37;20.07;;;;;;;;;;10293820;28;20078;-78
2023/12/23 13:01:22;;;;;;;34.13;16.00;;;;;;;;;;10306651;28;20041;-79
2023/12/23 13:06:23;;;;;;;35.97;17.23;;;;;;;;;;10301383;28;20026;-78
2023/12/23 13:11:24;;;;;;;26.63;11.57;;;;;;;;;;10294677;28;20034;-78
2023/12/23 13:16:25;;;;;;;27.93;12.67;;;;;;;;;;10296080;28;20568;-79
2023/12/23 13:21:26;;;;;;;25.60;11.90;;;;;;;;;;10284489;28;20064;-78
2023/12/23 13:26:27;;;;;;;32.67;14.23;;;;;;;;;;10262465;28;20030;-79
2023/12/23 13:31:28;;;;;;;23.63;9.83;;;;;;;;;;10292271;28;20478;-79
2023/12/23 13:36:29;;;;;;;18.23;7.77;;;;;;;;;;10287339;28;20039;-79
2023/12/23 13:41:31;;;;;;;25.90;10.70;;;;;;;;;;10289166;28;20057;-79
2023/12/23 13:46:32;;;;;;;22.37;10.73;;;;;;;;;;10298318;28;20398;-79
2023/12/23 13:51:33;;;;;;;33.37;16.50;;;;;;;;;;10294568;28;20034;-79
2023/12/23 13:56:34;;;;;;;32.93;15.63;;;;;;;;;;10292485;28;20510;-79
2023/12/23 14:12:52;;;;;;;63.50;23.80;;;;;;;;;;10295022;28;20038;-80
2023/12/23 14:17:53;;;;;;;112.33;40.93;;;;;;;;;;10306988;28;20113;-79
2023/12/23 14:22:54;;;;;;;103.33;36.07;;;;;;;;;;10295124;28;20035;-79
2023/12/23 14:27:55;;;;;;;56.53;23.73;;;;;;;;;;10283073;28;20027;-80
2023/12/23 14:32:56;;;;;;;89.57;38.30;;;;;;;;;;10298222;28;20041;-79
2023/12/23 14:38:04;;;;;;;72.10;31.20;;;;;;;;;;10303005;28;20094;-79
2023/12/23 14:43:12;;;;;;;109.73;51.60;;;;;;;;;;10283370;28;20039;-77
2023/12/23 14:48:13;;;;;;;112.03;49.03;;;;;;;;;;10288172;28;20035;-81
2023/12/23 14:53:14;;;;;;;105.17;49.60;;;;;;;;;;10292497;28;20490;-77
2023/12/23 14:58:15;;;;;;;72.27;34.63;;;;;;;;;;10294048;28;20076;-78
2023/12/23 15:03:16;;;;;;;77.97;35.60;;;;;;;;;;10296648;28;20031;-78
2023/12/23 15:08:17;;;;;;;136.20;52.57;;;;;;;;;;10292359;28;20035;-77
2023/12/23 15:13:20;;;;;;;79.37;34.53;;;;;;;;;;10291928;28;20039;-80
2023/12/23 15:18:21;;;;;;;64.93;28.93;;;;;;;;;;10279764;28;20133;-80
2023/12/23 15:23:22;;;;;;;76.87;33.83;;;;;;;;;;10290419;28;20038;-78
2023/12/23 15:28:23;;;;;;;68.53;30.87;;;;;;;;;;10296569;28;20031;-77
2023/12/23 15:33:24;;;;;;;87.70;37.77;;;;;;;;;;10293426;28;20035;-78
2023/12/23 15:38:25;;;;;;;66.67;29.37;;;;;;;;;;10292128;28;20070;-78
2023/12/23 15:43:26;;;;;;;50.23;22.33;;;;;;;;;;10301298;28;20054;-77
2023/12/23 15:48:28;;;;;;;59.10;28.17;;;;;;;;;;10309257;28;20061;-78
2023/12/23 15:53:29;;;;;;;48.80;25.20;;;;;;;;;;10282986;28;20041;-78
2023/12/23 15:58:30;;;;;;;42.43;18.77;;;;;;;;;;10288985;28;20142;-78
2023/12/23 16:03:31;;;;;;;46.93;25.07;;;;;;;;;;10289452;28;20043;-78
2023/12/23 16:08:32;;;;;;;36.77;17.80;;;;;;;;;;10295482;28;20073;-78
2023/12/23 16:13:33;;;;;;;31.77;16.27;;;;;;;;;;10295026;28;20034;-76
2023/12/23 16:18:34;;;;;;;25.20;11.93;;;;;;;;;;10305531;28;20395;-79
2023/12/23 16:23:35;;;;;;;23.53;12.50;;;;;;;;;;10289759;28;20062;-79
2023/12/23 16:28:37;;;;;;;17.37;8.60;;;;;;;;;;10285643;28;20398;-78
2023/12/23 16:33:38;;;;;;;18.97;9.17;;;;;;;;;;10286351;28;20039;-78
2023/12/23 16:38:39;;;;;;;14.50;6.03;;;;;;;;;;10296446;28;20089;-78
2023/12/23 16:43:40;;;;;;;13.80;6.97;;;;;;;;;;10292456;28;20087;-78
2023/12/23 16:48:41;;;;;;;10.97;5.20;;;;;;;;;;10295874;28;20069;-78
2023/12/23 16:53:42;;;;;;;7.20;3.50;;;;;;;;;;10288854;28;20037;-78
2023/12/23 16:58:43;;;;;;;11.80;5.43;;;;;;;;;;10294067;28;20074;-78
2023/12/23 17:03:44;;;;;;;11.17;4.43;;;;;;;;;;10295712;28;20050;-78
2023/12/23 17:08:45;;;;;;;10.17;5.00;;;;;;;;;;10298335;28;20085;-78
2023/12/23 17:13:46;;;;;;;10.90;4.83;;;;;;;;;;10290234;28;20085;-78
2023/12/23 17:18:47;;;;;;;9.57;5.23;;;;;;;;;;10284560;28;20077;-77
2023/12/23 17:23:48;;;;;;;13.40;7.07;;;;;;;;;;10305312;28;20109;-77
2023/12/23 17:28:49;;;;;;;19.10;7.30;;;;;;;;;;10301490;28;20113;-78
2023/12/23 17:33:50;;;;;;;14.93;7.23;;;;;;;;;;10286077;28;20128;-77
2023/12/23 17:38:51;;;;;;;13.80;5.63;;;;;;;;;;10295050;28;20042;-78
2023/12/23 17:43:52;;;;;;;12.40;5.93;;;;;;;;;;10296214;28;20092;-77
2023/12/23 17:48:53;;;;;;;14.63;5.70;;;;;;;;;;10303588;28;20057;-78
2023/12/23 17:53:54;;;;;;;13.93;5.40;;;;;;;;;;10303380;28;20045;-77
2023/12/23 17:58:55;;;;;;;13.57;5.53;;;;;;;;;;10292141;28;20186;-78
2023/12/23 18:03:56;;;;;;;16.90;7.53;;;;;;;;;;10292809;28;20027;-78
2023/12/23 18:08:57;;;;;;;16.03;7.00;;;;;;;;;;10287580;28;20027;-78
2023/12/23 18:13:58;;;;;;;13.97;6.20;;;;;;;;;;10294804;28;20046;-77
2023/12/23 18:19:00;;;;;;;17.17;8.63;;;;;;;;;;10300288;28;20042;-77
2023/12/23 18:24:01;;;;;;;34.67;15.20;;;;;;;;;;10301425;28;20342;-78
2023/12/23 18:29:03;;;;;;;28.50;13.73;;;;;;;;;;10305683;28;20034;-78
2023/12/23 18:34:07;;;;;;;23.33;10.10;;;;;;;;;;10298153;28;20040;-77
2023/12/23 18:39:08;;;;;;;35.93;15.70;;;;;;;;;;10296231;28;20042;-77
2023/12/23 18:44:09;;;;;;;27.97;12.27;;;;;;;;;;10288623;28;20081;-77
2023/12/23 18:49:10;;;;;;;25.40;11.47;;;;;;;;;;10282557;28;20125;-77
2023/12/23 18:54:12;;;;;;;27.23;11.40;;;;;;;;;;10290084;28;20042;-77
2023/12/23 18:59:15;;;;;;;41.87;18.17;;;;;;;;;;10294881;28;20046;-76
2023/12/23 19:04:16;;;;;;;30.20;13.03;;;;;;;;;;10298590;28;20026;-77
2023/12/23 19:09:17;;;;;;;43.50;18.73;;;;;;;;;;10306550;28;20090;-77
2023/12/23 19:14:18;;;;;;;80.27;33.17;;;;;;;;;;10304185;28;20042;-77
2023/12/23 19:19:19;;;;;;;34.10;15.80;;;;;;;;;;10286978;28;20047;-77
2023/12/23 19:24:27;;;;;;;38.77;18.13;;;;;;;;;;10283358;28;20027;-78
2023/12/23 19:29:28;;;;;;;72.13;25.67;;;;;;;;;;10287677;28;20077;-76
2023/12/23 19:34:36;;;;;;;46.63;21.10;;;;;;;;;;10297690;28;20042;-77
2023/12/23 19:39:37;;;;;;;46.67;20.07;;;;;;;;;;10275294;28;20046;-77
2023/12/23 19:44:38;;;;;;;84.73;31.00;;;;;;;;;;10299106;28;20022;-78
2023/12/23 19:49:40;;;;;;;55.20;24.83;;;;;;;;;;10301490;28;20173;-78
2023/12/23 19:54:41;;;;;;;43.43;19.80;;;;;;;;;;10287270;28;20061;-78
2023/12/23 19:59:42;;;;;;;71.50;27.90;;;;;;;;;;10291790;28;20067;-77
2023/12/23 20:04:43;;;;;;;44.23;19.07;;;;;;;;;;10294897;28;20482;-79
2023/12/23 20:09:44;;;;;;;30.20;14.90;;;;;;;;;;10302223;28;20031;-78
2023/12/23 20:14:45;;;;;;;70.60;29.13;;;;;;;;;;10309877;28;20046;-77
2023/12/23 20:19:46;;;;;;;27.20;13.57;;;;;;;;;;10310569;28;20049;-78
2023/12/23 20:24:54;;;;;;;38.83;16.07;;;;;;;;;;10295289;28;20492;-78
2023/12/23 20:29:56;;;;;;;28.57;12.60;;;;;;;;;;10284655;28;20023;-78
2023/12/23 20:34:58;;;;;;;69.23;27.33;;;;;;;;;;10282996;28;20022;-77
2023/12/23 20:39:59;;;;;;;24.13;12.67;;;;;;;;;;10290514;28;20044;-79
2023/12/23 20:45:00;;;;;;;69.07;30.60;;;;;;;;;;10302501;28;20025;-78
2023/12/23 20:50:01;;;;;;;33.57;14.10;;;;;;;;;;10297353;28;20114;-77
2023/12/23 20:55:24;;;;;;;38.07;17.40;;;;;;;;;;10280306;28;20398;-78
2023/12/23 21:00:25;;;;;;;32.90;14.17;;;;;;;;;;10293298;28;20041;-79
2023/12/23 21:05:26;;;;;;;44.73;20.10;;;;;;;;;;10290480;28;20041;-78
2023/12/23 21:10:28;;;;;;;45.33;20.23;;;;;;;;;;10297564;28;20366;-78
2023/12/23 21:15:29;;;;;;;42.67;18.57;;;;;;;;;;10289040;28;20033;-78
2023/12/23 21:20:30;;;;;;;39.70;18.10;;;;;;;;;;10300125;28;20057;-78
2023/12/23 21:25:31;;;;;;;37.60;17.07;;;;;;;;;;10295221;28;20425;-79
2023/12/23 21:30:32;;;;;;;37.07;16.70;;;;;;;;;;10281559;28;20121;-78
2023/12/23 21:35:33;;;;;;;42.40;18.67;;;;;;;;;;10285582;28;20101;-78
2023/12/23 21:40:34;;;;;;;39.10;16.67;;;;;;;;;;10282051;28;20158;-79
2023/12/23 21:45:35;;;;;;;33.07;13.10;;;;;;;;;;10286810;28;20018;-78
2023/12/23 21:50:36;;;;;;;35.80;15.70;;;;;;;;;;10283528;28;20026;-78
2023/12/23 21:55:37;;;;;;;38.80;18.23;;;;;;;;;;10286071;28;20073;-78
2023/12/23 22:00:39;;;;;;;33.63;17.73;;;;;;;;;;10301504;28;20150;-78
2023/12/23 22:05:40;;;;;;;39.17;19.53;;;;;;;;;;10299279;28;20037;-78
2023/12/23 22:10:41;;;;;;;45.17;20.47;;;;;;;;;;10296820;28;20431;-78
2023/12/23 22:15:42;;;;;;;43.87;18.27;;;;;;;;;;10292216;28;20034;-78
2023/12/23 22:20:43;;;;;;;36.47;15.90;;;;;;;;;;10284720;28;20042;-77
2023/12/23 22:25:45;;;;;;;35.40;16.33;;;;;;;;;;10286697;28;20505;-78
2023/12/23 22:30:46;;;;;;;34.67;15.20;;;;;;;;;;10289718;28;20150;-78
2023/12/23 22:35:47;;;;;;;36.83;16.40;;;;;;;;;;10289307;28;20138;-77
2023/12/23 22:40:48;;;;;;;34.87;16.10;;;;;;;;;;10292836;28;20074;-78
2023/12/23 22:45:49;;;;;;;31.20;14.57;;;;;;;;;;10293577;28;20465;-78
2023/12/23 22:50:50;;;;;;;31.33;14.23;;;;;;;;;;10292157;28;20038;-78
2023/12/23 22:55:51;;;;;;;31.53;13.93;;;;;;;;;;10292641;28;20065;-78
2023/12/23 23:00:52;;;;;;;35.47;14.57;;;;;;;;;;10301466;28;20125;-78
2023/12/23 23:05:53;;;;;;;37.70;15.73;;;;;;;;;;10292797;28;20022;-78
2023/12/23 23:10:54;;;;;;;33.90;15.53;;;;;;;;;;10299131;28;20065;-78
2023/12/23 23:15:55;;;;;;;30.60;14.60;;;;;;;;;;10295284;28;20352;-77
2023/12/23 23:20:56;;;;;;;32.60;16.30;;;;;;;;;;10301886;28;20042;-78
2023/12/23 23:25:57;;;;;;;29.23;14.70;;;;;;;;;;10293269;28;20073;-78
2023/12/23 23:30:58;;;;;;;28.70;14.67;;;;;;;;;;10293111;28;20370;-78
2023/12/23 23:35:59;;;;;;;29.83;14.33;;;;;;;;;;10290179;28;20037;-78
2023/12/23 23:41:00;;;;;;;29.90;13.70;;;;;;;;;;10289476;28;20035;-78
2023/12/23 23:46:01;;;;;;;34.60;14.03;;;;;;;;;;10299111;28;20547;-79
2023/12/23 23:51:04;;;;;;;28.17;13.10;;;;;;;;;;10289043;28;20394;-78
2023/12/23 23:56:07;;;;;;;21.23;10.33;;;;;;;;;;10277045;28;20086;-78
